createdAt,value
2022-09-06T00:02:46.202Z,83.55
2022-09-06T00:07:47.978Z,84.12
2022-09-06T00:12:49.538Z,84.06
2022-09-06T00:17:51.654Z,81.88
2022-09-06T00:23:00.348Z,81.35
2022-09-06T00:28:04.335Z,82.06
2022-09-06T00:33:05.887Z,82.71
2022-09-06T00:38:07.439Z,82.51
2022-09-06T00:43:09.031Z,83.01
2022-09-06T00:48:10.616Z,83.54
2022-09-06T00:53:12.309Z,84.20
2022-09-06T00:58:13.883Z,83.84
2022-09-06T01:03:15.574Z,85.09
2022-09-06T01:08:37.392Z,84.07
2022-09-06T01:13:55.400Z,85.36
2022-09-06T01:19:03.115Z,85.89
2022-09-06T01:24:29.663Z,86.40
2022-09-06T01:29:43.938Z,86.08
2022-09-06T01:34:53.470Z,84.28
2022-09-06T01:39:55.112Z,84.19
2022-09-06T01:45:00.746Z,83.06
2022-09-06T01:50:39.459Z,84.08
2022-09-06T01:56:06.595Z,82.38
2022-09-06T02:01:33.848Z,82.55
2022-09-06T02:06:40.737Z,82.56
2022-09-06T02:11:50.827Z,84.56
2022-09-06T02:16:54.174Z,85.66
2022-09-06T02:21:57.586Z,84.40
2022-09-06T02:26:59.212Z,83.59
2022-09-06T02:32:08.664Z,82.71
2022-09-06T02:37:11.347Z,83.80
2022-09-06T02:42:14.767Z,85.47
2022-09-06T02:47:16.804Z,82.88
2022-09-06T02:52:18.352Z,82.24
2022-09-06T02:57:19.995Z,84.55
2022-09-06T03:02:21.601Z,84.71
2022-09-06T03:07:23.236Z,85.05
2022-09-06T03:12:24.814Z,82.37
2022-09-06T03:17:26.375Z,82.46
2022-09-06T03:22:27.955Z,81.12
2022-09-06T03:27:29.586Z,80.22
2022-09-06T03:32:31.140Z,81.41
2022-09-06T03:37:32.692Z,80.61
2022-09-06T03:42:34.270Z,81.07
2022-09-06T03:47:35.853Z,81.14
2022-09-06T03:52:37.439Z,81.87
2022-09-06T03:57:39.045Z,82.11
2022-09-06T04:02:40.621Z,80.68
2022-09-06T04:07:43.263Z,82.46
2022-09-06T04:12:45.280Z,81.92
2022-09-06T04:17:47.220Z,83.12
2022-09-06T04:22:48.765Z,81.55
2022-09-06T04:27:50.363Z,82.55
2022-09-06T04:32:52.049Z,83.70
2022-09-06T04:37:53.584Z,84.13
2022-09-06T04:42:55.104Z,84.42
2022-09-06T04:47:56.714Z,84.39
2022-09-06T04:52:58.281Z,84.76
2022-09-06T04:58:03.499Z,84.76
2022-09-06T05:03:05.176Z,84.53
2022-09-06T05:08:06.767Z,84.47
2022-09-06T05:13:08.317Z,83.20
2022-09-06T05:18:12.928Z,82.20
2022-09-06T05:23:17.852Z,83.30
2022-09-06T05:28:19.997Z,81.91
2022-09-06T05:33:22.667Z,81.52
2022-09-06T05:38:29.188Z,81.22
2022-09-06T05:43:31.198Z,80.22
2022-09-06T05:48:36.781Z,80.17
2022-09-06T05:53:41.419Z,79.72
2022-09-06T05:58:43.163Z,79.36
2022-09-06T06:03:57.449Z,78.48
2022-09-06T06:08:59.597Z,78.16
2022-09-06T06:14:02.697Z,77.94
2022-09-06T06:19:04.315Z,77.02
2022-09-06T06:24:06.347Z,77.04
2022-09-06T06:29:09.614Z,76.05
2022-09-06T06:34:11.609Z,77.00
2022-09-06T06:39:13.153Z,76.51
2022-09-06T06:44:14.720Z,76.21
2022-09-06T06:49:16.559Z,75.38
2022-09-06T06:54:18.322Z,75.35
2022-09-06T06:59:20.809Z,74.93
2022-09-06T07:04:23.034Z,75.02
2022-09-06T07:09:24.820Z,74.65
2022-09-06T07:14:26.390Z,73.93
2022-09-06T07:24:49.601Z,72.19
2022-09-06T07:29:51.193Z,71.96
2022-09-06T07:34:52.827Z,71.53
2022-09-06T07:39:54.680Z,72.21
2022-09-06T07:44:57.720Z,71.78
2022-09-06T07:55:20.859Z,72.24
2022-09-06T08:00:22.532Z,70.92
2022-09-06T08:10:50.707Z,71.39
2022-09-06T08:16:03.025Z,71.08
2022-09-06T08:21:12.633Z,70.85
2022-09-06T08:26:15.963Z,71.31
2022-09-06T08:31:17.858Z,70.49
2022-09-06T08:36:20.041Z,71.30
2022-09-06T08:41:58.541Z,70.23
2022-09-06T08:47:04.434Z,69.94
2022-09-06T08:52:11.862Z,69.44
2022-09-06T08:57:20.316Z,68.73
2022-09-06T09:02:22.391Z,68.59
2022-09-06T09:07:59.673Z,68.72
2022-09-06T09:13:02.706Z,67.71
2022-09-06T09:18:04.357Z,68.06
2022-09-06T09:23:06.001Z,67.53
2022-09-06T09:28:16.617Z,67.16
2022-09-06T09:33:29.442Z,67.71
2022-09-06T09:38:35.500Z,67.63
2022-09-06T09:43:39.704Z,66.27
2022-09-06T09:49:02.248Z,65.47
2022-09-06T09:54:07.217Z,65.63
2022-09-06T09:59:17.149Z,65.25
2022-09-06T10:04:46.235Z,65.15
2022-09-06T10:09:49.327Z,64.50
2022-09-06T10:14:50.948Z,65.08
2022-09-06T10:19:52.971Z,64.97
2022-09-06T10:25:32.057Z,63.89
2022-09-06T10:30:36.366Z,63.89
2022-09-06T10:35:38.311Z,64.29
2022-09-06T10:41:10.037Z,64.47
2022-09-06T10:46:15.192Z,63.95
2022-09-06T10:51:20.679Z,63.86
2022-09-06T10:56:44.621Z,63.91
2022-09-06T11:02:02.761Z,63.14
2022-09-06T11:07:11.725Z,63.28
2022-09-06T11:12:34.926Z,63.44
2022-09-06T11:17:58.812Z,64.10
2022-09-06T11:23:19.010Z,63.69
2022-09-06T11:28:29.402Z,66.06
2022-09-06T11:33:35.509Z,64.35
2022-09-06T11:38:37.253Z,64.29
2022-09-06T11:43:53.637Z,64.77
2022-09-06T11:49:19.932Z,63.57
2022-09-06T11:54:26.966Z,63.42
2022-09-06T11:59:52.654Z,63.86
2022-09-06T12:05:04.627Z,64.01
2022-09-06T12:10:40.734Z,64.06
2022-09-06T12:15:52.902Z,63.79
2022-09-06T12:20:54.922Z,63.33
2022-09-06T12:25:57.475Z,62.32
2022-09-06T12:30:59.077Z,63.30
2022-09-06T12:36:32.984Z,61.75
2022-09-06T12:41:56.755Z,61.31
2022-09-06T12:47:03.755Z,61.29
2022-09-06T12:52:07.062Z,61.31
2022-09-06T12:57:26.940Z,61.79
2022-09-06T13:02:37.435Z,61.01
2022-09-06T13:07:43.027Z,60.56
2022-09-06T13:12:45.763Z,60.77
2022-09-06T13:17:47.567Z,61.68
2022-09-06T13:22:50.873Z,62.04
2022-09-06T13:27:58.991Z,62.16
2022-09-06T13:33:01.075Z,62.30
2022-09-06T13:38:35.022Z,61.94
2022-09-06T13:43:45.095Z,63.81
2022-09-06T13:48:46.679Z,66.05
2022-09-06T13:53:48.951Z,72.48
2022-09-06T13:58:50.503Z,78.35
2022-09-06T14:03:52.715Z,79.08
2022-09-06T14:09:06.818Z,81.35
2022-09-06T14:14:09.894Z,82.93
2022-09-06T14:19:11.539Z,83.99
2022-09-06T14:24:13.197Z,82.52
2022-09-06T14:29:14.803Z,87.24
2022-09-06T14:34:16.506Z,87.48
2022-09-06T14:39:18.567Z,86.19
2022-09-06T14:44:20.110Z,86.17
2022-09-06T14:49:21.783Z,88.93
2022-09-06T14:54:27.367Z,88.88
2022-09-06T14:59:30.658Z,89.64
2022-09-06T15:04:33.357Z,90.58
2022-09-06T15:09:34.954Z,90.52
2022-09-06T15:14:37.549Z,90.97
2022-09-06T15:19:39.654Z,90.83
2022-09-06T15:24:41.277Z,90.65
2022-09-06T15:29:42.809Z,88.79
2022-09-06T15:34:44.366Z,91.66
2022-09-06T15:39:46.018Z,91.52
2022-09-06T15:44:47.787Z,91.86
2022-09-06T15:49:49.384Z,91.71
2022-09-06T15:55:09.712Z,90.67
2022-09-06T16:00:12.195Z,90.47
2022-09-06T16:05:13.989Z,90.52
2022-09-06T16:10:15.550Z,90.48
2022-09-06T16:15:17.246Z,90.18
2022-09-06T16:20:19.342Z,92.61
2022-09-06T16:25:21.057Z,93.70
2022-09-06T16:30:23.068Z,92.17
2022-09-06T16:35:25.258Z,92.95
2022-09-06T16:40:27.558Z,91.67
2022-09-06T16:45:30.537Z,93.84
2022-09-06T16:50:33.064Z,94.04
2022-09-06T16:55:38.163Z,92.72
2022-09-06T17:00:44.791Z,92.92
2022-09-06T17:05:53.044Z,93.17
2022-09-06T17:10:54.991Z,92.69
2022-09-06T17:16:20.052Z,93.11
2022-09-06T17:21:24.635Z,94.00
2022-09-06T17:26:26.562Z,95.03
2022-09-06T17:31:28.966Z,94.46
2022-09-06T17:36:32.218Z,94.83
2022-09-06T17:41:46.855Z,94.73
2022-09-06T17:47:09.122Z,93.96
2022-09-06T17:52:11.577Z,93.98
2022-09-06T17:57:13.491Z,93.77
2022-09-06T18:02:15.198Z,94.09
2022-09-06T18:07:17.789Z,94.75
2022-09-06T18:12:20.363Z,94.77
2022-09-06T18:17:23.955Z,94.33
2022-09-06T18:22:25.625Z,92.76
2022-09-06T18:27:28.292Z,91.96
2022-09-06T18:32:30.384Z,92.35
2022-09-06T18:37:36.117Z,90.84
2022-09-06T18:42:44.105Z,91.53
2022-09-06T18:47:45.966Z,91.58
2022-09-06T18:52:47.570Z,90.96
2022-09-06T18:57:49.351Z,91.49
2022-09-06T19:02:51.249Z,91.84
2022-09-06T19:07:53.774Z,92.46
2022-09-06T19:12:57.085Z,93.28
2022-09-06T19:17:58.681Z,93.00
2022-09-06T19:23:00.462Z,92.50
2022-09-06T19:28:02.406Z,93.16
2022-09-06T19:33:03.993Z,93.14
2022-09-06T19:38:06.051Z,91.79
2022-09-06T19:43:07.686Z,93.87
2022-09-06T19:48:10.296Z,94.63
2022-09-06T19:53:12.148Z,94.39
2022-09-06T19:58:13.740Z,93.94
2022-09-06T20:03:15.603Z,93.59
2022-09-06T20:08:17.843Z,94.57
2022-09-06T20:13:20.460Z,94.34
2022-09-06T20:18:22.640Z,93.09
2022-09-06T20:23:24.359Z,95.27
2022-09-06T20:28:26.315Z,95.53
2022-09-06T20:33:28.619Z,94.48
2022-09-06T20:38:31.731Z,93.91
2022-09-06T20:43:36.558Z,94.31
2022-09-06T20:48:43.614Z,92.81
2022-09-06T20:53:56.822Z,94.32
2022-09-06T20:59:00.760Z,93.66
2022-09-06T21:04:04.645Z,94.65
2022-09-06T21:09:12.131Z,93.67
2022-09-06T21:14:14.168Z,92.54
2022-09-06T21:19:16.399Z,93.12
2022-09-06T21:24:18.047Z,93.57
2022-09-06T21:29:19.736Z,93.31
2022-09-06T21:34:22.460Z,93.68
2022-09-06T21:39:24.183Z,94.85
2022-09-06T21:44:26.316Z,94.73
2022-09-06T21:49:28.550Z,94.20
2022-09-06T21:54:30.083Z,93.55
2022-09-06T21:59:32.082Z,93.00
2022-09-06T22:04:33.657Z,94.17
2022-09-06T22:09:35.287Z,95.25
2022-09-06T22:14:37.102Z,95.78
2022-09-06T22:19:38.754Z,94.53
2022-09-06T22:24:40.405Z,93.36
2022-09-06T22:29:42.174Z,92.14
2022-09-06T22:34:44.458Z,93.48
2022-09-06T22:39:48.035Z,94.26
2022-09-06T22:44:50.046Z,94.48
2022-09-06T22:49:51.878Z,96.06
2022-09-06T22:54:53.696Z,96.34
2022-09-06T22:59:55.534Z,96.95
2022-09-06T23:04:57.762Z,95.30
2022-09-06T23:09:59.443Z,94.26
2022-09-06T23:15:01.116Z,95.67
2022-09-06T23:20:03.903Z,96.29
2022-09-06T23:25:07.116Z,95.08
2022-09-06T23:30:09.578Z,95.97
2022-09-06T23:35:11.345Z,97.14
2022-09-06T23:40:13.356Z,96.77
2022-09-06T23:45:15.229Z,94.20
2022-09-06T23:50:16.881Z,96.93
2022-09-06T23:55:18.732Z,96.01
